メインページ
METAR-TAF:

METAR-TAF

空港 :

ポンタ・デルガダ空港

ポンタ・デルガダ, アゾレス諸島, ポルトガル

緯度: 37-44N, 経度: 025-42W, 海抜: 71m

現時点の気象観測

当レポートは18分前の03:30(UTC)に作成
北東の風 8kt、から東/北東の間で変化する
気温 21°C
湿度 83%
気圧 1025 hPa
視程10km以上
高度2000ftの雲はほとんどない
高度4000ftの雲は散在している

METAR: LPPD 250330Z 04008KT 010V070 9999 FEW020 SCT040 21/18 Q1025

時間: 03:48 (03:48 UTC)

予報

当レポートは4時間48分前の23:00(UTC)に作成
予報は25日の 00時(UTC)から 25日の 24時(UTC)まで有効
変向風 5kt
視程10km以上
高度2000ftの雲は散在している
25日の 00時(UTC)から 25日の 24時(UTC)まで一時的に
高度1500ftの雲はほとんどない
高度3500ftの千切れ雲あり
25日の 08時(UTC)から 25日の 10時(UTC)まで徐々に
南東の風 12kt

TAF: LPPD 242300Z 2500/2524 VRB05KT 9999 SCT020 TEMPO 2500/2524 FEW015 BKN035 BECMG 2508/2510 13012KT

4,000以上の空港の気象観測と天気予報(METAR報とTAF報)

利用可能な観測所は地図上に黄色い丸と赤い丸で示す。

丸の上にカーソルを重ねると観測所名を参照できる。

次にクリックすると気象観測と天気予報を参照できる。

マップの切り替え:黒色「×」印の緑ボタンをクリックして拡大、「-」印の緑ボタンをクリックして縮小、緑色の三角印をクリックして隣りの地図に切り替え


METAR-TAF: